Time;durP1;ratioP1;P1;durP2;ratioP2;P2;SDS_P1;SDS_P2;PMS_P1;PMS_P2;Temp;Humidity;BMP_temperature;BMP_pressure;BME280_temperature;BME280_humidity;BME280_pressure;Samples;Min_cycle;Max_cycle;Signal;HPM_P1;HPM_P2
2022/12/30 00:00:25;;;;;;;;;;;;;;;28.78;63.14;101390.19;5048715;28;71009;-41
2022/12/30 00:02:56;;;;;;;;;;;;;;;28.81;63.50;101388.97;5049612;28;65967;-38
2022/12/30 00:05:26;;;;;;;;;;;;;;;28.83;64.17;101393.13;5045832;28;68612;-37
2022/12/30 00:07:57;;;;;;;;;;;;;;;28.88;64.60;101398.78;5046520;28;66560;-37
2022/12/30 00:10:29;;;;;;;;;;;;;;;28.92;64.47;101404.66;5056476;28;70328;-38
2022/12/30 00:35:29;;;;;;;;;;;;;;;29.11;67.09;101449.06;5055290;28;65897;-37
2022/12/30 00:38:00;;;;;;;;;;;;;;;29.08;67.27;101444.91;5054605;28;69913;-36
2022/12/30 00:40:31;;;;;;;;;;;;;;;29.11;66.43;101441.84;5056485;28;65304;-38
2022/12/30 00:43:10;;;;;;;;;;;;;;;29.08;67.11;101454.88;5056531;28;70606;-38
2022/12/30 00:45:42;;;;;;;;;;;;;;;29.09;67.70;101457.41;5049594;28;64975;-37
2022/12/30 00:56:42;;;;;;;;;;;;;;;29.02;66.09;101461.03;5046708;28;65412;-38
2022/12/30 00:59:13;;;;;;;;;;;;;;;29.04;65.61;101476.03;5059128;28;69899;-38
2022/12/30 01:01:44;;;;;;;;;;;;;;;29.06;64.96;101465.03;5062137;28;65278;-39
2022/12/30 01:04:15;;;;;;;;;;;;;;;29.04;64.32;101464.41;5059706;28;70779;-39
2022/12/30 01:06:46;;;;;;;;;;;;;;;29.10;64.30;101471.72;5050024;28;65975;-42
2022/12/30 01:09:17;;;;;;;;;;;;;;;29.11;64.31;101473.38;5048072;28;69728;-39
2022/12/30 01:12:07;;;;;;;;;;;;;;;29.12;64.10;101475.09;5053503;28;66055;-38
2022/12/30 01:14:40;;;;;;;;;;;;;;;29.12;63.51;101478.63;5050430;28;70676;-39
2022/12/30 01:17:13;;;;;;;;;;;;;;;29.14;63.40;101481.97;5059372;28;66476;-38
2022/12/30 01:19:43;;;;;;;;;;;;;;;29.15;63.35;101482.78;5041359;28;70407;-39
2022/12/30 01:22:14;;;;;;;;;;;;;;;29.16;63.92;101484.47;5045442;28;67039;-39
2022/12/30 01:24:46;;;;;;;;;;;;;;;29.17;63.50;101486.16;5043061;28;68709;-38
2022/12/30 01:27:16;;;;;;;;;;;;;;;29.18;63.85;101493.22;5044637;28;66930;-39
2022/12/30 01:29:48;;;;;;;;;;;;;;;29.18;63.35;101495.91;5052659;28;70261;-40
2022/12/30 01:32:20;;;;;;;;;;;;;;;29.19;63.95;101489.47;5059156;28;65435;-39
2022/12/30 01:34:54;;;;;;;;;;;;;;;29.19;63.53;101494.88;5060700;28;70463;-40
2022/12/30 01:37:25;;;;;;;;;;;;;;;29.21;63.58;101498.22;5049692;28;66548;-39
2022/12/30 01:39:55;;;;;;;;;;;;;;;29.21;63.11;101498.22;5057999;28;69991;-40
2022/12/30 01:42:28;;;;;;;;;;;;;;;29.22;63.23;101493.66;5054672;28;65463;-39
2022/12/30 01:45:00;;;;;;;;;;;;;;;29.23;63.65;101496.16;5054934;28;69930;-39
2022/12/30 01:47:37;;;;;;;;;;;;;;;29.18;63.16;101493.22;5048634;28;65365;-39
2022/12/30 01:50:16;;;;;;;;;;;;;;;29.23;62.98;101496.16;5055796;28;70126;-38
2022/12/30 01:53:06;;;;;;;;;;;;;;;29.25;63.34;101498.66;5054733;28;64824;-39
2022/12/30 01:55:40;;;;;;;;;;;;;;;29.25;62.76;101504.91;5053355;28;69351;-41
2022/12/30 01:58:26;;;;;;;;;;;;;;;29.26;63.27;101501.19;5073967;27;66814;-38
2022/12/30 02:00:56;;;;;;;;;;;;;;;29.27;62.71;101502.84;5052763;28;69389;-38
2022/12/30 02:03:32;;;;;;;;;;;;;;;29.28;62.70;101492.88;5056330;28;66788;-39
2022/12/30 02:06:04;;;;;;;;;;;;;;;29.30;63.12;101501.63;5054728;28;69616;-39
2022/12/30 02:08:35;;;;;;;;;;;;;;;29.29;63.00;101495.38;5058133;28;67007;-38
2022/12/30 02:11:07;;;;;;;;;;;;;;;29.31;62.56;101508.69;5055881;28;71267;-38
2022/12/30 02:13:38;;;;;;;;;;;;;;;29.30;62.44;101502.44;5058651;28;66358;-39
2022/12/30 02:16:30;;;;;;;;;;;;;;;29.31;62.94;101501.44;5054845;28;69311;-37
2022/12/30 02:19:01;;;;;;;;;;;;;;;29.31;62.83;101501.44;5056415;28;66002;-38
2022/12/30 02:21:34;;;;;;;;;;;;;;;29.32;62.65;101500.41;5055858;28;70629;-38
2022/12/30 02:24:10;;;;;;;;;;;;;;;29.35;62.98;101504.56;5051792;28;66827;-39
2022/12/30 02:26:47;;;;;;;;;;;;;;;29.34;62.45;101502.91;5054879;28;69328;-39
2022/12/30 02:29:36;;;;;;;;;;;;;;;29.35;62.84;101505.41;5052666;28;66272;-39
2022/12/30 02:32:25;;;;;;;;;;;;;;;28.95;62.68;101433.97;5055033;28;69095;-38
2022/12/30 02:35:01;;;;;;;;;;;;;;;29.35;62.66;101500.00;5055105;28;66695;-39
2022/12/30 02:37:47;;;;;;;;;;;;;;;29.37;62.29;101497.94;5058907;28;70679;-41
2022/12/30 02:40:18;;;;;;;;;;;;;;;29.37;62.11;101503.34;5057117;28;66057;-39
2022/12/30 02:45:59;;;;;;;;;;;;;;;29.39;62.50;101479.69;5053669;28;66526;-41
2022/12/30 02:48:33;;;;;;;;;;;;;;;29.40;62.43;101481.34;5051140;28;69556;-39
2022/12/30 02:53:54;;;;;;;;;;;;;;;29.39;61.92;101479.69;5044719;28;70003;-38
2022/12/30 02:56:24;;;;;;;;;;;;;;;29.44;61.67;101486.34;5050706;28;66498;-39
2022/12/30 03:04:56;;;;;;;;;;;;;;;29.45;61.65;101478.06;5064892;28;68116;-39
2022/12/30 03:07:37;;;;;;;;;;;;;;;29.46;61.84;101473.47;5054093;28;64853;-39
2022/12/30 03:13:10;;;;;;;;;;;;;;;29.49;61.90;101462.28;5052795;28;66595;-39
2022/12/30 03:15:44;;;;;;;;;;;;;;;29.50;61.95;101463.94;5055078;28;70502;-38
2022/12/30 03:18:15;;;;;;;;;;;;;;;29.50;61.84;101456.66;5057972;28;65663;-39
2022/12/30 03:20:47;;;;;;;;;;;;;;;29.51;61.72;101460.22;5056306;28;70414;-39
2022/12/30 03:28:58;;;;;;;;;;;;;;;29.56;61.37;101446.91;5048577;28;66984;-39
2022/12/30 03:31:30;;;;;;;;;;;;;;;29.55;61.45;101456.06;5054405;28;70636;-39
2022/12/30 03:34:01;;;;;;;;;;;;;;;29.56;61.64;101452.31;5051095;28;66644;-39
2022/12/30 03:36:34;;;;;;;;;;;;;;;29.57;61.61;101446.72;5054690;28;70485;-39
2022/12/30 03:39:23;;;;;;;;;;;;;;;29.58;61.04;101444.84;5052919;28;66892;-38
2022/12/30 03:41:54;;;;;;;;;;;;;;;29.59;61.12;101446.56;5054786;28;68891;-38
2022/12/30 03:44:25;;;;;;;;;;;;;;;29.59;61.05;101452.78;5053229;28;65641;-39
2022/12/30 03:46:56;;;;;;;;;;;;;;;29.61;60.86;101455.28;5050418;28;70365;-39
2022/12/30 03:49:27;;;;;;;;;;;;;;;29.60;61.23;101437.41;5055134;28;66453;-39
2022/12/30 03:51:57;;;;;;;;;;;;;;;29.62;61.35;101443.44;5051247;28;70709;-42
2022/12/30 03:54:33;;;;;;;;;;;;;;;29.64;61.19;101432.44;5057451;28;67004;-39
2022/12/30 03:57:04;;;;;;;;;;;;;;;29.64;61.11;101429.75;5058244;28;69886;-40
2022/12/30 03:59:34;;;;;;;;;;;;;;;29.65;61.11;101423.31;5053822;28;66217;-41
2022/12/30 04:02:05;;;;;;;;;;;;;;;29.66;60.97;101415.00;5057033;28;69919;-40
2022/12/30 04:04:36;;;;;;;;;;;;;;;29.67;60.98;101410.41;5057342;28;66739;-40
2022/12/30 04:07:07;;;;;;;;;;;;;;;29.67;60.86;101405.88;5050392;28;69645;-39
2022/12/30 04:09:38;;;;;;;;;;;;;;;29.69;60.81;101408.34;5053178;28;65902;-42
2022/12/30 04:12:09;;;;;;;;;;;;;;;29.70;60.76;101408.16;5056111;28;70418;-40
2022/12/30 04:14:39;;;;;;;;;;;;;;;29.71;60.64;101393.59;5058729;28;66311;-40
2022/12/30 04:17:11;;;;;;;;;;;;;;;29.72;60.63;101395.25;5052120;28;70243;-40
2022/12/30 04:19:43;;;;;;;;;;;;;;;29.73;60.66;101388.00;5051152;28;65613;-38
2022/12/30 04:22:15;;;;;;;;;;;;;;;29.75;60.50;101380.50;5055303;28;69873;-38
2022/12/30 04:24:46;;;;;;;;;;;;;;;29.77;60.42;101375.75;5053367;28;66663;-38
2022/12/30 04:27:21;;;;;;;;;;;;;;;29.79;59.86;101371.81;5054391;28;70030;-38
2022/12/30 04:29:52;;;;;;;;;;;;;;;29.79;59.85;101366.41;5052771;28;65272;-38
2022/12/30 04:32:23;;;;;;;;;;;;;;;29.81;59.88;101364.34;5050700;28;69579;-38
2022/12/30 04:34:54;;;;;;;;;;;;;;;29.82;59.87;101366.00;5053120;28;65881;-39
2022/12/30 04:37:25;;;;;;;;;;;;;;;29.86;59.74;101357.47;5050912;28;68920;-38
2022/12/30 04:39:55;;;;;;;;;;;;;;;29.87;59.61;101351.88;5048038;28;67640;-38
2022/12/30 04:42:26;;;;;;;;;;;;;;;29.89;59.47;101348.94;5058633;28;70349;-39
2022/12/30 04:44:57;;;;;;;;;;;;;;;29.76;59.79;101320.84;5057917;28;66673;-39
2022/12/30 04:47:29;;;;;;;;;;;;;;;29.94;59.33;101338.38;5050815;28;69884;-38
2022/12/30 04:50:00;;;;;;;;;;;;;;;29.95;59.28;101334.59;5058756;28;66129;-38
2022/12/30 04:52:30;;;;;;;;;;;;;;;29.98;59.26;101336.94;5052960;28;69868;-39
2022/12/30 04:55:02;;;;;;;;;;;;;;;29.99;59.29;101328.59;5054412;28;65806;-39
2022/12/30 04:57:32;;;;;;;;;;;;;;;30.01;59.67;101318.41;5046063;28;68709;-39
2022/12/30 05:00:05;;;;;;;;;;;;;;;30.03;59.08;101323.59;5049307;28;66784;-42
2022/12/30 05:02:36;;;;;;;;;;;;;;;30.05;59.08;101316.13;5046547;28;69199;-39
2022/12/30 05:05:07;;;;;;;;;;;;;;;30.07;59.35;101308.66;5054297;28;65412;-39
2022/12/30 05:07:37;;;;;;;;;;;;;;;30.09;59.45;101303.88;5055603;28;70670;-40
2022/12/30 05:10:08;;;;;;;;;;;;;;;30.11;59.15;101303.66;5050550;28;65896;-42
2022/12/30 05:12:39;;;;;;;;;;;;;;;30.13;59.31;101291.59;5053414;28;70353;-43
2022/12/30 05:15:10;;;;;;;;;;;;;;;30.15;58.88;101296.81;5053718;28;66837;-40
2022/12/30 05:17:40;;;;;;;;;;;;;;;30.17;58.97;101282.03;5054742;28;70903;-40
2022/12/30 05:20:11;;;;;;;;;;;;;;;30.17;58.45;101282.03;5055066;28;66573;-44
2022/12/30 05:22:42;;;;;;;;;;;;;;;30.21;58.86;101277.88;5052709;28;69421;-39
2022/12/30 05:28:02;;;;;;;;;;;;;;;30.25;58.62;101262.91;5048363;28;70401;-41
2022/12/30 05:30:32;;;;;;;;;;;;;;;30.27;58.44;101260.00;5055722;28;64944;-39
2022/12/30 05:33:03;;;;;;;;;;;;;;;30.28;58.73;101261.66;5053105;28;70941;-42
2022/12/30 05:35:34;;;;;;;;;;;;;;;30.31;58.53;101257.72;5053154;28;66013;-38
2022/12/30 05:38:04;;;;;;;;;;;;;;;30.33;58.21;101252.94;5055301;28;69203;-39
2022/12/30 05:40:35;;;;;;;;;;;;;;;30.33;58.16;101247.50;5055894;28;65985;-41
2022/12/30 05:43:05;;;;;;;;;;;;;;;30.35;57.98;101242.75;5055662;28;70498;-40
2022/12/30 05:45:37;;;;;;;;;;;;;;;30.37;58.54;101241.50;5040714;28;65394;-38
2022/12/30 05:48:07;;;;;;;;;;;;;;;30.37;58.66;101232.50;5057748;28;70569;-42
2022/12/30 05:50:40;;;;;;;;;;;;;;;30.38;58.26;101226.06;5059294;28;67004;-37
2022/12/30 05:53:10;;;;;;;;;;;;;;;30.39;58.28;101219.59;5059896;28;70008;-38
2022/12/30 05:55:41;;;;;;;;;;;;;;;30.41;58.38;101212.13;5052052;28;65958;-39
2022/12/30 05:58:12;;;;;;;;;;;;;;;30.41;58.45;101209.41;5029804;28;69837;-39
2022/12/30 06:00:42;;;;;;;;;;;;;;;30.41;57.86;101201.28;5072540;27;66340;-39
2022/12/30 06:03:13;;;;;;;;;;;;;;;30.42;58.45;101186.72;5052346;28;70654;-38
2022/12/30 06:05:44;;;;;;;;;;;;;;;30.43;57.92;101185.69;5050280;28;66910;-42
2022/12/30 06:08:14;;;;;;;;;;;;;;;30.44;57.82;101187.34;5055108;28;70117;-40
2022/12/30 06:10:45;;;;;;;;;;;;;;;30.45;58.34;101175.47;5048073;28;66557;-37
2022/12/30 06:13:16;;;;;;;;;;;;;;;30.45;58.09;101180.88;5049586;28;70402;-39
2022/12/30 06:15:46;;;;;;;;;;;;;;;30.45;58.32;101170.91;5053815;28;65390;-38
2022/12/30 06:18:17;;;;;;;;;;;;;;;30.47;57.95;101165.25;5051963;28;70307;-38
2022/12/30 06:20:48;;;;;;;;;;;;;;;30.47;58.05;101162.56;5062132;28;65861;-42
2022/12/30 06:23:19;;;;;;;;;;;;;;;30.47;57.92;101157.13;5058027;28;69712;-38
2022/12/30 06:25:53;;;;;;;;;;;;;;;30.48;58.22;101154.22;5059920;28;66732;-39
2022/12/30 06:28:25;;;;;;;;;;;;;;;30.49;58.25;101152.34;5050994;28;69795;-42
2022/12/30 06:30:55;;;;;;;;;;;;;;;30.46;58.14;101133.84;5057248;28;66351;-38
2022/12/30 06:33:26;;;;;;;;;;;;;;;30.52;58.19;101137.56;5057543;28;70300;-38
2022/12/30 06:35:58;;;;;;;;;;;;;;;30.54;57.61;101140.91;5053275;28;66869;-39
2022/12/30 06:38:28;;;;;;;;;;;;;;;30.54;57.97;101130.06;5054704;28;70278;-39
2022/12/30 06:40:59;;;;;;;;;;;;;;;30.55;58.06;101126.31;5055995;28;66946;-39
2022/12/30 06:43:30;;;;;;;;;;;;;;;30.56;57.65;101117.97;5052676;28;69754;-39
2022/12/30 06:46:00;;;;;;;;;;;;;;;30.58;58.15;101113.19;5056191;28;66535;-39
2022/12/30 06:48:31;;;;;;;;;;;;;;;30.59;58.04;101098.63;5052053;28;70298;-38
2022/12/30 06:51:04;;;;;;;;;;;;;;;30.60;57.36;101102.97;5055902;28;67076;-38
2022/12/30 06:53:35;;;;;;;;;;;;;;;30.63;57.75;101102.53;5058891;28;71043;-39
2022/12/30 06:56:06;;;;;;;;;;;;;;;30.64;57.57;101081.69;5059096;28;66811;-41
2022/12/30 06:58:37;;;;;;;;;;;;;;;30.66;57.75;101085.88;5070844;27;69891;-40
2022/12/30 07:01:08;;;;;;;;;;;;;;;30.68;57.48;101083.78;5053024;28;66085;-38
2022/12/30 07:03:39;;;;;;;;;;;;;;;30.70;57.11;101080.84;5056874;28;70136;-38
2022/12/30 07:06:10;;;;;;;;;;;;;;;30.70;57.59;101081.69;5056829;28;66108;-38
2022/12/30 07:08:40;;;;;;;;;;;;;;;30.71;56.93;101080.66;5073304;27;70366;-38
2022/12/30 07:11:11;;;;;;;;;;;;;;;30.72;57.53;101073.34;5053098;28;64846;-39
2022/12/30 07:13:42;;;;;;;;;;;;;;;30.74;57.15;101071.25;5053492;28;69097;-38
2022/12/30 07:16:13;;;;;;;;;;;;;;;30.74;56.97;101076.69;5058958;28;65972;-39
2022/12/30 07:18:44;;;;;;;;;;;;;;;30.75;57.03;101072.91;5051598;28;69763;-41
2022/12/30 07:21:14;;;;;;;;;;;;;;;30.76;57.26;101071.03;5056439;28;68224;-38
2022/12/30 07:23:46;;;;;;;;;;;;;;;30.77;57.39;101064.59;5048831;28;70281;-39
2022/12/30 07:26:17;;;;;;;;;;;;;;;30.77;57.34;101064.59;5057037;28;66007;-39
2022/12/30 07:28:47;;;;;;;;;;;;;;;30.77;56.97;101060.00;5051498;28;69784;-40
2022/12/30 07:31:21;;;;;;;;;;;;;;;30.78;57.33;101060.81;5053069;28;66934;-38
2022/12/30 07:33:52;;;;;;;;;;;;;;;30.78;56.79;101058.94;5057820;28;70267;-38
2022/12/30 07:36:23;;;;;;;;;;;;;;;30.81;56.92;101052.28;5065892;27;66624;-39
2022/12/30 07:38:56;;;;;;;;;;;;;;;30.80;57.17;101056.06;5058051;28;69725;-38
2022/12/30 07:41:27;;;;;;;;;;;;;;;30.82;56.60;101056.69;5051738;28;67124;-39
2022/12/30 07:43:57;;;;;;;;;;;;;;;30.83;56.84;101052.91;5055073;28;70206;-38
2022/12/30 07:46:29;;;;;;;;;;;;;;;30.82;56.50;101051.25;5049230;28;66648;-39
2022/12/30 07:49:00;;;;;;;;;;;;;;;30.84;56.63;101054.56;5057889;28;69643;-39
2022/12/30 07:51:30;;;;;;;;;;;;;;;30.85;57.04;101058.97;5059212;28;66324;-40
2022/12/30 07:54:01;;;;;;;;;;;;;;;30.85;56.89;101056.25;5054504;28;70507;-39
2022/12/30 07:56:35;;;;;;;;;;;;;;;30.86;56.88;101052.47;5053956;28;66296;-38
2022/12/30 07:59:06;;;;;;;;;;;;;;;30.87;56.71;101043.28;5041976;28;67990;-39
2022/12/30 08:01:37;;;;;;;;;;;;;;;30.88;56.67;101047.69;5052331;28;66250;-38
2022/12/30 08:04:08;;;;;;;;;;;;;;;30.88;56.56;101045.81;5055560;28;70531;-39
2022/12/30 08:06:58;;;;;;;;;;;;;;;30.90;56.85;101042.91;5056591;28;64424;-39
2022/12/30 08:09:29;;;;;;;;;;;;;;;30.90;56.20;101043.72;5053173;28;69761;-39
2022/12/30 08:12:00;;;;;;;;;;;;;;;30.91;56.61;101044.53;5056379;28;65912;-39
2022/12/30 08:14:31;;;;;;;;;;;;;;;30.91;56.81;101039.13;5053407;28;70350;-41
2022/12/30 08:17:01;;;;;;;;;;;;;;;30.93;56.35;101026.19;5054829;28;66613;-39
2022/12/30 08:19:32;;;;;;;;;;;;;;;30.94;56.46;101025.16;5055274;28;69039;-38
2022/12/30 08:22:03;;;;;;;;;;;;;;;30.95;56.21;101026.78;5045655;28;66668;-38
2022/12/30 08:24:33;;;;;;;;;;;;;;;30.95;56.40;101029.50;5058689;28;70109;-39
2022/12/30 08:27:04;;;;;;;;;;;;;;;30.97;56.34;101032.84;5058197;28;66997;-39
2022/12/30 08:29:35;;;;;;;;;;;;;;;30.97;56.39;101027.41;5051458;28;70667;-39
2022/12/30 08:32:05;;;;;;;;;;;;;;;30.98;56.44;101022.81;5051246;28;67189;-40
2022/12/30 08:34:36;;;;;;;;;;;;;;;30.97;56.53;101019.28;5058223;28;70481;-39
2022/12/30 08:37:06;;;;;;;;;;;;;;;30.98;56.60;101023.69;5051335;28;67131;-38
2022/12/30 08:39:37;;;;;;;;;;;;;;;30.99;56.33;101027.22;5054335;28;70750;-40
2022/12/30 08:42:09;;;;;;;;;;;;;;;31.00;56.04;101035.09;5051363;28;65947;-38
2022/12/30 08:44:40;;;;;;;;;;;;;;;31.00;56.24;101029.69;5046843;28;70590;-42
2022/12/30 08:47:10;;;;;;;;;;;;;;;31.02;56.03;101029.47;5051748;28;65927;-39
2022/12/30 08:49:41;;;;;;;;;;;;;;;30.69;56.39;100977.13;5054649;28;70282;-40
2022/12/30 08:52:12;;;;;;;;;;;;;;;31.02;55.89;101030.31;5051479;28;66661;-38
2022/12/30 08:54:45;;;;;;;;;;;;;;;31.03;55.88;101026.53;5055578;28;44009;-38
2022/12/30 08:57:15;;;;;;;;;;;;;;;31.04;55.99;101030.09;5058980;28;67171;-38
2022/12/30 08:59:47;;;;;;;;;;;;;;;31.04;56.25;101033.63;5058952;28;68874;-38
2022/12/30 09:02:17;;;;;;;;;;;;;;;31.04;56.20;101027.41;5058611;28;65415;-39
2022/12/30 09:04:48;;;;;;;;;;;;;;;31.02;56.15;101030.31;5047044;28;70335;-39
2022/12/30 09:07:19;;;;;;;;;;;;;;;31.05;55.82;101035.28;5055301;28;66211;-39
2022/12/30 09:10:11;;;;;;;;;;;;;;;31.06;55.56;101030.69;5048760;28;70701;-39
2022/12/30 09:12:42;;;;;;;;;;;;;;;31.06;56.07;101036.94;5060971;28;66904;-39
2022/12/30 09:15:13;;;;;;;;;;;;;;;31.08;55.56;101039.44;5030072;28;69197;-38
2022/12/30 09:17:44;;;;;;;;;;;;;;;31.08;55.83;101034.03;5058310;28;66438;-39
2022/12/30 09:20:15;;;;;;;;;;;;;;;31.08;56.40;101040.25;5048311;28;69181;-37
2022/12/30 09:22:51;;;;;;;;;;;;;;;31.09;56.52;101036.53;5056854;28;66357;-43
2022/12/30 09:25:21;;;;;;;;;;;;;;;31.12;56.30;101046.06;5046666;28;70590;-38
2022/12/30 09:27:52;;;;;;;;;;;;;;;31.03;56.67;101053.63;5050733;28;66465;-38
2022/12/30 09:30:23;;;;;;;;;;;;;;;30.96;57.07;101058.28;5054546;28;69953;-39
2022/12/30 09:32:54;;;;;;;;;;;;;;;30.91;57.51;101060.78;5055835;28;66860;-38
2022/12/30 09:35:25;;;;;;;;;;;;;;;30.85;58.00;101059.78;5050709;28;70182;-41
2022/12/30 09:37:56;;;;;;;;;;;;;;;30.83;58.15;101069.16;5053784;28;66985;-39
2022/12/30 09:40:42;;;;;;;;;;;;;;;30.79;58.94;101073.34;5046174;28;70784;-38
2022/12/30 09:43:35;;;;;;;;;;;;;;;30.76;58.84;101079.16;5056089;28;66623;-38
2022/12/30 09:46:10;;;;;;;;;;;;;;;30.73;58.81;101081.28;5055026;28;69928;-40
2022/12/30 09:48:50;;;;;;;;;;;;;;;30.76;59.42;101081.88;5053445;28;65933;-37
2022/12/30 09:51:23;;;;;;;;;;;;;;;30.73;59.25;101086.69;5049026;28;69925;-39
2022/12/30 09:53:54;;;;;;;;;;;;;;;30.72;59.43;101092.31;5052265;28;65924;-39
2022/12/30 09:56:31;;;;;;;;;;;;;;;30.70;59.58;101097.09;5053546;28;70766;-38
2022/12/30 09:59:13;;;;;;;;;;;;;;;30.70;60.06;101106.06;5052292;28;65631;-39
2022/12/30 10:01:45;;;;;;;;;;;;;;;30.67;60.10;101114.63;5048900;28;70743;-38
2022/12/30 10:04:17;;;;;;;;;;;;;;;30.69;60.55;101112.50;5046936;28;66407;-38
2022/12/30 10:07:03;;;;;;;;;;;;;;;30.70;60.08;101114.19;5053042;28;69600;-39
2022/12/30 10:09:37;;;;;;;;;;;;;;;30.67;60.69;101125.44;5052629;28;65974;-39
2022/12/30 10:12:23;;;;;;;;;;;;;;;30.66;61.19;101123.78;5070964;27;69215;-38
2022/12/30 10:14:57;;;;;;;;;;;;;;;30.67;60.86;101133.56;5057143;28;66308;-39
2022/12/30 10:17:46;;;;;;;;;;;;;;;30.68;60.88;101137.94;5061255;28;70489;-39
2022/12/30 10:20:17;;;;;;;;;;;;;;;30.66;61.21;101150.84;5053997;28;66133;-39
2022/12/30 10:23:02;;;;;;;;;;;;;;;30.67;61.02;101155.25;5034163;28;69709;-39
2022/12/30 10:25:45;;;;;;;;;;;;;;;30.68;61.75;101154.19;5055544;28;66816;-38
2022/12/30 10:28:30;;;;;;;;;;;;;;;30.71;61.05;101153.75;5055694;28;70248;-38
2022/12/30 10:31:01;;;;;;;;;;;;;;;30.71;61.44;101156.47;5049148;28;66908;-39
2022/12/30 10:33:32;;;;;;;;;;;;;;;30.73;62.15;101154.38;5052683;28;69954;-39
2022/12/30 10:36:15;;;;;;;;;;;;;;;30.75;61.80;101156.88;5055338;28;64796;-39
2022/12/30 10:38:46;;;;;;;;;;;;;;;30.75;61.60;101154.16;5052172;28;70424;-39
2022/12/30 10:41:42;;;;;;;;;;;;;;;30.73;62.30;101151.69;5052637;28;66863;-38
2022/12/30 10:44:21;;;;;;;;;;;;;;;30.74;61.88;101163.34;5056406;28;70350;-41
2022/12/30 10:47:18;;;;;;;;;;;;;;;30.73;61.88;101162.50;5056091;28;66117;-40
2022/12/30 10:50:04;;;;;;;;;;;;;;;30.78;62.17;101163.72;5042779;28;70257;-39
2022/12/30 10:52:35;;;;;;;;;;;;;;;30.73;62.66;101167.94;5048399;28;66388;-39
2022/12/30 10:55:20;;;;;;;;;;;;;;;30.78;62.43;101163.72;5053820;28;70256;-40
2022/12/30 10:57:55;;;;;;;;;;;;;;;30.75;63.38;101172.28;5053456;28;65739;-39
2022/12/30 11:00:27;;;;;;;;;;;;;;;30.78;64.09;101177.28;5053838;28;70815;-42
2022/12/30 11:03:00;;;;;;;;;;;;;;;30.79;64.77;101181.66;5050306;28;64979;-38
2022/12/30 11:05:33;;;;;;;;;;;;;;;30.76;65.01;101177.50;5049202;28;70328;-38
2022/12/30 11:08:06;;;;;;;;;;;;;;;30.77;66.01;101173.75;5051880;28;65661;-39
2022/12/30 11:10:36;;;;;;;;;;;;;;;30.81;65.71;101180.41;5054896;28;69341;-39
2022/12/30 11:16:05;;;;;;;;;;;;;;;30.76;65.00;101192.91;5054812;28;69763;-41
2022/12/30 11:18:36;;;;;;;;;;;;;;;30.79;64.61;101187.09;5053951;28;65356;-39
2022/12/30 11:21:07;;;;;;;;;;;;;;;30.81;64.05;101185.00;5051754;28;70550;-40
2022/12/30 11:23:39;;;;;;;;;;;;;;;30.81;64.14;101185.81;5054261;28;66929;-42
2022/12/30 11:26:19;;;;;;;;;;;;;;;30.84;63.54;101190.00;5053500;28;70408;-38
2022/12/30 11:28:56;;;;;;;;;;;;;;;30.84;63.41;101187.28;5053541;28;65153;-39
2022/12/30 11:31:55;;;;;;;;;;;;;;;30.85;63.78;101189.78;5051550;28;70628;-39
2022/12/30 11:34:29;;;;;;;;;;;;;;;30.85;62.93;101188.97;5032825;28;65912;-40
2022/12/30 11:37:00;;;;;;;;;;;;;;;30.85;62.86;101188.97;5049530;28;69862;-39
2022/12/30 11:39:34;;;;;;;;;;;;;;;30.85;62.81;101187.09;5051453;28;65476;-39
2022/12/30 11:42:24;;;;;;;;;;;;;;;30.86;61.97;101198.75;5051087;28;70418;-40
2022/12/30 11:45:17;;;;;;;;;;;;;;;30.87;61.63;101195.84;5053675;28;66242;-40
2022/12/30 11:47:48;;;;;;;;;;;;;;;30.89;61.76;101192.91;5052608;28;69754;-38
2022/12/30 11:50:19;;;;;;;;;;;;;;;30.90;62.00;101194.59;5052732;28;65885;-39
2022/12/30 11:52:52;;;;;;;;;;;;;;;30.90;61.91;101194.59;5054377;28;70130;-39
2022/12/30 11:55:24;;;;;;;;;;;;;;;30.91;61.65;101201.66;5053696;28;66998;-39
2022/12/30 11:57:57;;;;;;;;;;;;;;;30.91;61.24;101201.66;5056399;28;69175;-38
2022/12/30 12:00:38;;;;;;;;;;;;;;;30.90;61.73;101203.53;5050798;28;66786;-41
2022/12/30 12:03:13;;;;;;;;;;;;;;;30.89;61.38;101204.56;5056616;28;69836;-39
2022/12/30 12:05:45;;;;;;;;;;;;;;;30.88;61.38;101212.91;5048047;28;66316;-41
2022/12/30 12:08:25;;;;;;;;;;;;;;;30.88;62.98;101212.91;5056651;28;70046;-40
2022/12/30 12:10:56;;;;;;;;;;;;;;;30.89;61.78;101225.41;5050772;28;66498;-40
2022/12/30 12:13:47;;;;;;;;;;;;;;;30.89;62.14;101220.81;5047382;28;70245;-42
2022/12/30 12:16:38;;;;;;;;;;;;;;;30.88;62.28;101230.00;5057279;28;66927;-41
2022/12/30 12:19:16;;;;;;;;;;;;;;;30.88;62.23;101234.59;5043943;27;70766;-41
2022/12/30 12:21:49;;;;;;;;;;;;;;;30.88;61.89;101235.41;5052718;28;65752;-43
2022/12/30 12:24:22;;;;;;;;;;;;;;;30.88;61.47;101245.41;5056005;28;70280;-42
2022/12/30 12:27:05;;;;;;;;;;;;;;;30.88;62.32;101246.25;5051457;28;66345;-43
2022/12/30 12:29:36;;;;;;;;;;;;;;;30.87;61.65;101241.88;5049374;28;69621;-40
2022/12/30 12:32:21;;;;;;;;;;;;;;;30.87;61.65;101260.00;5054715;28;66582;-41
2022/12/30 12:35:20;;;;;;;;;;;;;;;30.87;61.90;101260.00;5060009;28;68416;-42
2022/12/30 12:38:10;;;;;;;;;;;;;;;30.87;62.19;101260.00;5071202;27;65830;-43
2022/12/30 12:40:54;;;;;;;;;;;;;;;30.87;62.26;101257.28;5055863;28;69645;-36
2022/12/30 12:43:26;;;;;;;;;;;;;;;30.89;63.98;101257.91;5058061;28;66952;-38
2022/12/30 12:46:06;;;;;;;;;;;;;;;30.81;65.32;101263.53;5052959;28;69398;-42
2022/12/30 12:48:41;;;;;;;;;;;;;;;30.76;65.53;101260.59;5053801;28;65489;-39
2022/12/30 12:51:25;;;;;;;;;;;;;;;30.70;65.80;101260.41;5059351;28;69306;-36
2022/12/30 12:54:14;;;;;;;;;;;;;;;30.69;65.95;101264.16;5058054;28;66415;-40
2022/12/30 12:57:17;;;;;;;;;;;;;;;30.65;66.28;101271.03;5057554;28;70459;-38
2022/12/30 12:59:59;;;;;;;;;;;;;;;30.60;65.85;101273.53;5056142;28;66315;-40
2022/12/30 13:02:30;;;;;;;;;;;;;;;30.56;66.29;101269.56;5056395;28;67749;-44
2022/12/30 13:05:22;;;;;;;;;;;;;;;30.53;65.86;101280.81;5059369;28;65783;-39
2022/12/30 13:08:11;;;;;;;;;;;;;;;30.50;65.87;101281.25;5049948;28;68978;-41
2022/12/30 13:10:58;;;;;;;;;;;;;;;30.48;66.34;101277.94;5059071;28;66083;-41
2022/12/30 13:14:21;;;;;;;;;;;;;;;30.47;66.44;101276.25;5052384;28;70341;-41
2022/12/30 13:16:55;;;;;;;;;;;;;;;30.08;66.18;101226.44;5031233;28;66672;-38
2022/12/30 13:19:31;;;;;;;;;;;;;;;30.42;66.77;101287.72;5059755;28;69973;-38
2022/12/30 13:22:05;;;;;;;;;;;;;;;30.42;66.79;101289.56;5056198;28;66691;-40
2022/12/30 13:24:48;;;;;;;;;;;;;;;30.43;67.19;101294.78;5052936;28;69842;-40
2022/12/30 13:27:27;;;;;;;;;;;;;;;30.43;67.96;101302.06;5059193;28;66967;-39
2022/12/30 13:29:59;;;;;;;;;;;;;;;30.43;67.91;101294.78;5058790;28;70358;-41
2022/12/30 13:32:46;;;;;;;;;;;;;;;30.45;67.31;101305.38;5061492;28;66249;-41
2022/12/30 13:35:35;;;;;;;;;;;;;;;30.44;67.41;101307.28;5070253;27;70573;-42
2022/12/30 13:38:13;;;;;;;;;;;;;;;30.45;67.73;101310.81;5054685;28;66987;-40
2022/12/30 13:40:58;;;;;;;;;;;;;;;30.45;67.90;101306.25;5053844;28;70026;-41
2022/12/30 13:43:43;;;;;;;;;;;;;;;30.43;67.63;101315.63;5053349;28;65509;-39
2022/12/30 13:46:18;;;;;;;;;;;;;;;30.44;67.53;101314.56;5049717;28;69875;-41
2022/12/30 13:48:52;;;;;;;;;;;;;;;30.44;68.10;101325.38;5052385;28;66945;-44
2022/12/30 13:51:25;;;;;;;;;;;;;;;30.45;68.98;101324.34;5057028;28;70345;-45
2022/12/30 13:54:06;;;;;;;;;;;;;;;30.45;68.99;101330.59;5051526;28;66395;-42
2022/12/30 13:56:37;;;;;;;;;;;;;;;30.48;69.37;101332.06;5054850;28;69982;-41
2022/12/30 13:59:23;;;;;;;;;;;;;;;30.48;68.93;101337.50;5056195;28;66765;-43
2022/12/30 14:02:14;;;;;;;;;;;;;;;30.48;69.47;101335.59;5055482;28;69480;-43
2022/12/30 14:04:45;;;;;;;;;;;;;;;30.50;69.37;101329.97;5048752;28;65567;-45
2022/12/30 14:07:34;;;;;;;;;;;;;;;30.51;70.10;101337.06;5054779;28;70230;-41
2022/12/30 14:10:22;;;;;;;;;;;;;;;30.51;70.11;101339.78;5055758;28;66603;-43